KSYM

Morehead-Rowan County Clyde A Thomas Regional Airport

Morehead, Kentucky, USA
METAR KSYM 190855Z AUTO 00000KT 9SM CLR 20/19 A2999 RMK AO2
Observed Flight Rules
Sep-19 @ 08:55 UTC (27 minutes ago) Visual Flight Rules
Visibility Clouds
9 miles
  • Clear skies
Temperatures Readings
Current 20°C / 68°F
Dewpoint 19°C / 66°F
Humidity 94%
Altimeter 29.99" Hg
Pressure 1016 hPa
Elevation 313
METAR KSYM 190855Z AUTO 00000KT 9SM CLR 20/19 A2999 RMK AO2
Observed Flight Rules
Sep-19 @ 08:55 UTC
(27 minutes ago)
VFR
Clouds
  • Clear skies
Temperature Dewpoint
20°C / 68°F 19°C / 66°F
Humidity Altimeter Pressure
94% 29.99" Hg 1016 hPa